createdAt,value
2019-01-02T00:02:56.958Z,249.37
2019-01-02T00:05:52.973Z,228.10
2019-01-02T00:08:49.115Z,260.37
2019-01-02T00:11:44.821Z,243.73
2019-01-02T00:14:43.109Z,257.10
2019-01-02T00:17:40.250Z,258.90
2019-01-02T00:20:36.413Z,266.37
2019-01-02T00:23:32.846Z,253.37
2019-01-02T00:26:29.603Z,254.20
2019-01-02T00:29:25.915Z,273.67
2019-01-02T00:32:22.095Z,225.67
2019-01-02T00:35:18.703Z,270.20
2019-01-02T00:38:14.913Z,300.03
2019-01-02T00:41:10.376Z,298.33
2019-01-02T00:44:05.678Z,294.27
2019-01-02T00:47:00.994Z,289.17
2019-01-02T00:49:57.987Z,296.03
2019-01-02T00:52:54.347Z,324.20
2019-01-02T00:55:54.370Z,296.13
2019-01-02T00:58:50.165Z,328.90
2019-01-02T01:01:45.522Z,344.57
2019-01-02T01:04:41.526Z,365.53
2019-01-02T01:07:37.355Z,351.50
2019-01-02T01:10:34.807Z,347.53
2019-01-02T01:13:30.592Z,356.13
2019-01-02T01:16:26.423Z,346.83
2019-01-02T01:19:26.087Z,372.33
2019-01-02T01:22:22.191Z,327.87
2019-01-02T01:25:17.709Z,379.33
2019-01-02T01:28:13.617Z,361.03
2019-01-02T01:31:09.048Z,364.00
2019-01-02T01:34:04.976Z,338.53
2019-01-02T01:37:05.094Z,375.23
2019-01-02T01:40:00.459Z,357.10
2019-01-02T01:42:56.407Z,361.23
2019-01-02T01:45:52.540Z,339.20
2019-01-02T01:48:49.815Z,382.87
2019-01-02T01:51:46.029Z,348.30
2019-01-02T01:54:41.968Z,360.17
2019-01-02T01:57:37.513Z,390.07
2019-01-02T02:00:32.955Z,375.00
2019-01-02T02:03:31.399Z,340.10
2019-01-02T02:06:30.035Z,363.67
2019-01-02T02:09:32.241Z,341.77
2019-01-02T02:12:27.917Z,405.93
2019-01-02T02:15:36.795Z,423.17
2019-01-02T02:18:26.876Z,431.73
2019-01-02T02:21:24.204Z,392.60
2019-01-02T02:24:20.688Z,397.80
2019-01-02T02:27:16.911Z,412.83
2019-01-02T02:30:14.675Z,392.80
2019-01-02T02:33:31.797Z,383.70
2019-01-02T02:36:28.434Z,402.57
2019-01-02T02:39:28.372Z,421.87
2019-01-02T02:42:23.472Z,367.27
2019-01-02T02:45:20.211Z,412.10
2019-01-02T02:48:16.430Z,425.93
2019-01-02T02:51:14.309Z,410.93
2019-01-02T02:54:10.838Z,394.07
2019-01-02T02:57:07.514Z,386.03
2019-01-02T03:00:04.869Z,403.83
2019-01-02T03:03:00.878Z,370.37
2019-01-02T03:05:57.087Z,379.70
2019-01-02T03:08:56.126Z,359.30
2019-01-02T03:11:56.328Z,349.20
2019-01-02T03:14:53.887Z,364.77
2019-01-02T03:17:53.149Z,365.90
2019-01-02T03:20:51.780Z,359.00
2019-01-02T03:23:50.387Z,350.07
2019-01-02T03:26:49.081Z,347.00
2019-01-02T03:29:55.970Z,344.70
2019-01-02T03:32:57.836Z,359.03
2019-01-02T03:35:53.850Z,356.63
2019-01-02T03:38:50.261Z,350.87
2019-01-02T03:41:49.206Z,339.97
2019-01-02T03:44:53.654Z,334.10
2019-01-02T03:47:48.403Z,363.07
2019-01-02T03:50:47.530Z,374.57
2019-01-02T03:53:44.118Z,369.23
2019-01-02T03:56:40.354Z,357.53
2019-01-02T03:59:40.341Z,359.83
2019-01-02T04:02:37.128Z,352.37
2019-01-02T04:05:36.319Z,337.20
2019-01-02T04:08:33.168Z,334.87
2019-01-02T04:11:29.179Z,333.33
2019-01-02T04:14:25.420Z,331.63
2019-01-02T04:17:21.449Z,329.57
2019-01-02T04:20:17.059Z,336.70
2019-01-02T04:23:12.447Z,331.37
2019-01-02T04:26:08.109Z,301.60
2019-01-02T04:29:04.012Z,336.77
2019-01-02T04:32:01.043Z,301.23
2019-01-02T04:34:57.102Z,311.53
2019-01-02T04:37:53.024Z,290.87
2019-01-02T04:40:49.359Z,313.17
2019-01-02T04:43:45.283Z,287.10
2019-01-02T04:46:40.659Z,370.73
2019-01-02T04:49:37.955Z,404.17
2019-01-02T04:52:34.048Z,271.90
2019-01-02T04:55:29.687Z,254.07
2019-01-02T04:58:27.051Z,251.10
2019-01-02T05:01:22.676Z,238.67
2019-01-02T05:04:28.601Z,269.10
2019-01-02T05:07:27.637Z,273.40
2019-01-02T05:10:23.680Z,273.03
2019-01-02T05:13:19.348Z,237.97
2019-01-02T05:16:15.186Z,236.27
2019-01-02T05:19:11.894Z,243.10
2019-01-02T05:22:08.074Z,241.60
2019-01-02T05:25:03.780Z,217.33
2019-01-02T05:27:59.622Z,217.07
2019-01-02T05:30:58.566Z,215.40
2019-01-02T05:33:53.914Z,210.10
2019-01-02T05:36:49.671Z,206.50
2019-01-02T05:39:48.622Z,191.63
2019-01-02T05:42:47.316Z,223.87
2019-01-02T05:45:52.195Z,191.27
2019-01-02T05:48:48.819Z,179.47
2019-01-02T05:51:44.269Z,210.07
2019-01-02T05:54:43.108Z,182.23
2019-01-02T05:57:39.482Z,201.23
2019-01-02T06:00:39.855Z,185.97
2019-01-02T06:03:35.898Z,199.77
2019-01-02T06:10:08.730Z,186.47
2019-01-02T06:13:05.428Z,171.63
2019-01-02T06:16:02.253Z,172.60
2019-01-02T06:18:59.116Z,171.33
2019-01-02T06:21:56.059Z,171.07
2019-01-02T06:24:53.112Z,167.03
2019-01-02T06:27:49.893Z,158.70
2019-01-02T06:30:46.809Z,174.47
2019-01-02T06:33:44.064Z,165.30
2019-01-02T06:36:39.681Z,170.23
2019-01-02T06:39:35.691Z,164.30
2019-01-02T06:42:31.574Z,164.07
2019-01-02T06:45:27.239Z,158.13
2019-01-02T06:48:22.484Z,162.27
2019-01-02T06:51:18.288Z,148.73
2019-01-02T06:54:14.204Z,160.57
2019-01-02T06:57:10.396Z,149.93
2019-01-02T07:00:06.548Z,148.43
2019-01-02T07:03:02.810Z,152.33
2019-01-02T07:06:03.807Z,144.43
2019-01-02T07:09:06.233Z,142.60
2019-01-02T07:12:03.484Z,145.23
2019-01-02T07:15:02.456Z,141.27
2019-01-02T07:17:58.809Z,134.63
2019-01-02T07:20:55.344Z,131.17
2019-01-02T07:23:53.337Z,137.03
2019-01-02T07:26:50.060Z,134.93
2019-01-02T07:29:47.112Z,134.30
2019-01-02T07:32:44.284Z,132.37
2019-01-02T07:36:35.178Z,134.87
2019-01-02T07:40:28.356Z,135.23
2019-01-02T07:44:05.128Z,126.97
2019-01-02T07:47:45.639Z,132.53
2019-01-02T07:51:19.818Z,118.43
2019-01-02T07:55:27.793Z,120.33
2019-01-02T07:58:57.751Z,126.37
2019-01-02T08:02:26.656Z,120.30
2019-01-02T08:06:20.656Z,127.10
2019-01-02T08:10:04.617Z,127.20
2019-01-02T08:13:43.096Z,118.10
2019-01-02T08:16:54.523Z,122.03
2019-01-02T08:20:31.708Z,118.63
2019-01-02T08:23:47.472Z,113.17
2019-01-02T08:27:15.568Z,122.53
2019-01-02T08:31:01.952Z,119.03
2019-01-02T08:34:45.520Z,123.90
2019-01-02T08:38:08.511Z,115.80
2019-01-02T08:41:46.091Z,116.83
2019-01-02T08:45:20.924Z,109.93
2019-01-02T08:48:57.680Z,118.43
2019-01-02T08:52:40.881Z,112.77
2019-01-02T08:56:20.745Z,114.73
2019-01-02T08:59:51.218Z,121.27
2019-01-02T09:03:19.201Z,112.50
2019-01-02T09:06:36.587Z,114.20
2019-01-02T09:10:07.663Z,114.53
2019-01-02T09:14:17.202Z,105.00
2019-01-02T09:17:53.900Z,111.17
2019-01-02T09:21:35.638Z,99.93
2019-01-02T09:25:04.994Z,113.17
2019-01-02T09:29:06.270Z,113.27
2019-01-02T09:32:18.978Z,110.20
2019-01-02T09:39:33.375Z,101.73
2019-01-02T09:43:37.945Z,95.20
2019-01-02T09:46:52.249Z,90.80
2019-01-02T09:50:16.045Z,100.43
2019-01-02T09:53:50.138Z,97.87
2019-01-02T09:57:26.694Z,99.97
2019-01-02T10:01:04.009Z,95.63
2019-01-02T10:04:31.375Z,97.97
2019-01-02T10:08:15.704Z,96.53
2019-01-02T10:12:00.192Z,94.50
2019-01-02T10:15:25.985Z,95.63
2019-01-02T10:19:04.496Z,92.13
2019-01-02T10:22:31.857Z,99.53
2019-01-02T10:25:52.685Z,92.27
2019-01-02T10:29:36.671Z,101.90
2019-01-02T10:32:59.545Z,93.83
2019-01-02T10:36:30.841Z,96.20
2019-01-02T10:39:56.732Z,97.17
2019-01-02T10:43:30.582Z,91.47
2019-01-02T10:47:02.413Z,90.77
2019-01-02T10:50:27.493Z,93.70
2019-01-02T10:54:01.248Z,91.33
2019-01-02T10:57:41.594Z,91.47
2019-01-02T11:01:15.904Z,98.93
2019-01-02T11:05:02.643Z,91.60
2019-01-02T11:08:45.118Z,98.67
2019-01-02T11:12:16.302Z,83.27
2019-01-02T11:16:06.859Z,90.70
2019-01-02T11:19:17.542Z,92.47
2019-01-02T11:22:40.269Z,84.00
2019-01-02T11:26:11.887Z,89.47
2019-01-02T11:29:42.587Z,92.10
2019-01-02T11:33:14.876Z,86.20
2019-01-02T11:37:14.164Z,92.30
2019-01-02T11:40:56.642Z,87.07
2019-01-02T11:44:24.791Z,89.33
2019-01-02T11:48:03.562Z,88.83
2019-01-02T11:51:06.399Z,89.23
2019-01-02T11:54:02.515Z,88.07
2019-01-02T11:57:08.530Z,89.67
2019-01-02T12:00:44.163Z,89.20
2019-01-02T12:03:22.912Z,82.60
2019-01-02T12:06:35.005Z,88.47
2019-01-02T12:09:43.701Z,88.10
2019-01-02T12:12:40.270Z,99.40
2019-01-02T12:15:38.350Z,91.97
2019-01-02T12:22:14.141Z,84.30
2019-01-02T12:25:17.283Z,87.50
2019-01-02T12:28:00.311Z,88.37
2019-01-02T12:30:56.351Z,91.03
2019-01-02T12:33:56.631Z,90.30
2019-01-02T12:36:53.956Z,93.37
2019-01-02T12:39:52.909Z,92.40
2019-01-02T12:42:50.235Z,92.83
2019-01-02T12:46:05.969Z,87.40
2019-01-02T12:49:30.045Z,94.13
2019-01-02T12:55:38.889Z,88.17
2019-01-02T12:58:34.590Z,88.63
2019-01-02T13:14:16.318Z,108.97
2019-01-02T13:17:51.217Z,97.60
2019-01-02T13:33:20.603Z,105.60
2019-01-02T13:37:33.619Z,105.53
